createdAt,value
2019-06-20T00:01:39.530Z,22.38
2019-06-20T00:04:08.254Z,22.35
2019-06-20T00:06:36.983Z,22.20
2019-06-20T00:09:07.112Z,22.11
2019-06-20T00:11:35.889Z,22.09
2019-06-20T00:14:04.924Z,21.97
2019-06-20T00:16:33.644Z,21.81
2019-06-20T00:19:02.395Z,21.87
2019-06-20T00:21:31.157Z,21.94
2019-06-20T00:23:59.932Z,21.75
2019-06-20T00:26:28.682Z,21.56
2019-06-20T00:28:57.411Z,21.42
2019-06-20T00:31:26.185Z,21.42
2019-06-20T00:33:54.906Z,21.52
2019-06-20T00:36:23.686Z,21.55
2019-06-20T00:38:52.391Z,21.58
2019-06-20T00:41:21.107Z,21.64
2019-06-20T00:43:49.814Z,21.50
2019-06-20T00:46:18.544Z,21.66
2019-06-20T00:48:47.293Z,21.74
2019-06-20T00:51:15.998Z,21.92
2019-06-20T00:53:44.709Z,21.96
2019-06-20T00:56:13.435Z,22.03
2019-06-20T00:58:42.144Z,21.82
2019-06-20T01:01:10.960Z,21.89
2019-06-20T01:03:39.673Z,22.00
2019-06-20T01:06:08.382Z,21.88
2019-06-20T01:08:37.094Z,21.85
2019-06-20T01:11:05.860Z,21.89
2019-06-20T01:13:34.663Z,21.78
2019-06-20T01:16:03.369Z,21.71
2019-06-20T01:18:32.127Z,21.63
2019-06-20T01:21:01.351Z,21.50
2019-06-20T01:23:30.055Z,21.30
2019-06-20T01:25:58.805Z,21.45
2019-06-20T01:28:27.509Z,21.56
2019-06-20T01:30:56.223Z,21.57
2019-06-20T01:33:24.968Z,21.54
2019-06-20T01:35:53.678Z,21.50
2019-06-20T01:38:22.486Z,21.20
2019-06-20T01:40:51.207Z,21.17
2019-06-20T01:43:19.921Z,21.35
2019-06-20T01:45:48.696Z,21.43
2019-06-20T01:48:17.407Z,21.49
2019-06-20T01:50:46.118Z,21.53
2019-06-20T01:53:14.844Z,21.55
2019-06-20T01:55:43.553Z,21.57
2019-06-20T01:58:12.317Z,21.60
2019-06-20T02:00:51.099Z,21.56
2019-06-20T02:03:21.025Z,21.53
2019-06-20T02:05:49.770Z,21.49
2019-06-20T02:08:18.483Z,21.37
2019-06-20T02:10:47.196Z,21.29
2019-06-20T02:13:16.394Z,21.37
2019-06-20T02:15:45.105Z,21.46
2019-06-20T02:18:13.921Z,21.53
2019-06-20T02:20:51.756Z,21.59
2019-06-20T02:23:20.861Z,21.62
2019-06-20T02:25:49.661Z,21.57
2019-06-20T02:28:18.337Z,21.52
2019-06-20T02:30:47.146Z,21.39
2019-06-20T02:33:16.222Z,21.32
2019-06-20T02:35:44.929Z,21.12
2019-06-20T02:38:13.674Z,20.90
2019-06-20T02:40:42.368Z,20.91
2019-06-20T02:43:11.072Z,20.79
2019-06-20T02:45:39.834Z,20.79
2019-06-20T02:48:08.545Z,20.73
2019-06-20T02:50:37.752Z,20.55
2019-06-20T02:53:06.482Z,20.17
2019-06-20T02:55:35.194Z,20.35
2019-06-20T02:58:03.899Z,20.31
2019-06-20T03:01:00.678Z,20.35
2019-06-20T03:03:29.977Z,20.44
2019-06-20T03:05:58.934Z,20.59
2019-06-20T03:08:27.939Z,20.71
2019-06-20T03:10:56.657Z,20.75
2019-06-20T03:13:25.369Z,20.77
2019-06-20T03:15:54.180Z,21.20
2019-06-20T03:18:22.929Z,21.58
2019-06-20T03:20:51.633Z,21.78
2019-06-20T03:23:20.342Z,22.23
2019-06-20T03:25:49.089Z,22.50
2019-06-20T03:28:17.791Z,23.04
2019-06-20T03:30:46.502Z,23.50
2019-06-20T03:33:15.315Z,23.67
2019-06-20T03:35:44.028Z,24.11
2019-06-20T03:38:12.812Z,24.36
2019-06-20T03:40:41.568Z,25.09
2019-06-20T03:43:10.308Z,25.68
2019-06-20T03:45:39.017Z,26.00
2019-06-20T03:48:07.729Z,26.34
2019-06-20T03:50:36.631Z,26.53
2019-06-20T03:53:05.338Z,26.93
2019-06-20T03:55:34.244Z,27.32
2019-06-20T03:58:03.112Z,27.64
2019-06-20T04:00:34.413Z,28.25
2019-06-20T04:03:03.820Z,28.22
2019-06-20T04:05:32.522Z,28.38
2019-06-20T04:08:01.332Z,28.89
2019-06-20T04:10:30.105Z,29.34
2019-06-20T04:12:58.843Z,29.82
2019-06-20T04:15:27.610Z,30.25
2019-06-20T04:17:56.308Z,30.54
2019-06-20T04:20:25.029Z,30.66
2019-06-20T04:22:53.777Z,30.67
2019-06-20T04:25:22.485Z,30.85
2019-06-20T04:27:51.264Z,30.88
2019-06-20T04:30:20.020Z,30.14
2019-06-20T04:32:48.768Z,30.58
2019-06-20T04:35:17.490Z,31.08
2019-06-20T04:37:46.207Z,31.61
2019-06-20T04:40:16.873Z,31.74
2019-06-20T04:42:45.582Z,32.17
2019-06-20T04:45:16.571Z,32.62
2019-06-20T04:47:45.289Z,33.17
2019-06-20T04:50:14.113Z,33.37
2019-06-20T04:52:42.863Z,33.36
2019-06-20T04:55:11.574Z,33.22
2019-06-20T04:57:40.345Z,33.66
2019-06-20T05:00:09.633Z,33.76
2019-06-20T05:02:38.311Z,33.89
2019-06-20T05:05:09.185Z,33.74
2019-06-20T05:07:37.896Z,34.29
2019-06-20T05:10:07.299Z,34.23
2019-06-20T05:12:36.036Z,34.13
2019-06-20T05:15:06.348Z,34.85
2019-06-20T05:17:35.115Z,35.41
2019-06-20T05:20:04.925Z,35.77
2019-06-20T05:22:33.634Z,36.13
2019-06-20T05:25:02.346Z,36.32
2019-06-20T05:27:31.061Z,36.50
2019-06-20T05:29:59.801Z,37.00
2019-06-20T05:32:28.509Z,37.01
2019-06-20T05:34:57.230Z,37.34
2019-06-20T05:37:25.955Z,36.75
2019-06-20T05:39:54.675Z,37.10
2019-06-20T05:42:24.265Z,37.39
2019-06-20T05:44:52.979Z,37.47
2019-06-20T05:47:21.689Z,37.33
2019-06-20T05:49:50.467Z,37.36
2019-06-20T05:52:19.201Z,37.74
2019-06-20T05:54:47.943Z,38.19
2019-06-20T05:57:16.693Z,38.64
2019-06-20T05:59:45.386Z,38.46
2019-06-20T06:02:14.125Z,38.48
2019-06-20T06:04:42.960Z,38.61
2019-06-20T06:07:14.272Z,38.82
2019-06-20T06:09:42.457Z,38.79
2019-06-20T06:12:11.261Z,38.67
2019-06-20T06:14:40.013Z,38.55
2019-06-20T06:17:08.799Z,37.88
2019-06-20T06:19:37.513Z,37.11
2019-06-20T06:22:06.235Z,36.01
2019-06-20T06:24:34.952Z,34.97
2019-06-20T06:27:03.711Z,33.94
2019-06-20T06:29:33.990Z,33.32
2019-06-20T06:32:02.700Z,32.99
2019-06-20T06:34:31.421Z,31.87
2019-06-20T06:37:00.133Z,31.72
2019-06-20T06:39:28.872Z,31.64
2019-06-20T06:41:57.613Z,31.61
2019-06-20T06:44:26.302Z,31.63
2019-06-20T06:46:59.458Z,30.61
2019-06-20T06:49:25.461Z,30.79
2019-06-20T06:51:54.229Z,31.19
2019-06-20T06:54:22.941Z,31.58
2019-06-20T06:56:51.653Z,31.67
2019-06-20T06:59:20.369Z,31.73
2019-06-20T07:01:49.077Z,31.57
2019-06-20T07:04:17.832Z,31.29
2019-06-20T07:06:46.549Z,31.33
2019-06-20T07:09:15.256Z,30.64
2019-06-20T07:11:44.086Z,30.78
2019-06-20T07:14:12.791Z,30.61
2019-06-20T07:16:41.502Z,30.52
2019-06-20T07:19:10.219Z,30.87
2019-06-20T07:21:38.937Z,31.00
2019-06-20T07:24:07.686Z,29.92
2019-06-20T07:26:36.408Z,30.40
2019-06-20T07:29:05.750Z,30.65
2019-06-20T07:31:34.444Z,30.78
2019-06-20T07:34:03.169Z,30.87
2019-06-20T07:36:31.986Z,30.97
2019-06-20T07:39:00.713Z,30.37
2019-06-20T07:41:29.418Z,30.08
2019-06-20T07:43:58.135Z,30.50
2019-06-20T07:46:26.856Z,30.61
2019-06-20T07:48:55.623Z,30.74
2019-06-20T07:51:24.335Z,29.97
2019-06-20T07:53:53.053Z,29.63
2019-06-20T07:56:21.865Z,29.72
2019-06-20T07:58:50.575Z,29.83
2019-06-20T08:01:19.383Z,30.20
2019-06-20T08:03:48.128Z,30.53
2019-06-20T08:06:16.922Z,30.80
2019-06-20T08:08:45.675Z,30.93
2019-06-20T08:11:14.385Z,30.53
2019-06-20T08:13:43.101Z,30.57
2019-06-20T08:16:11.824Z,30.71
2019-06-20T08:18:40.552Z,30.64
2019-06-20T08:21:09.344Z,30.67
2019-06-20T08:23:38.050Z,30.55
2019-06-20T08:26:06.999Z,30.58
2019-06-20T08:28:35.661Z,30.63
2019-06-20T08:31:04.848Z,30.48
2019-06-20T08:33:33.737Z,29.83
2019-06-20T08:36:02.460Z,29.76
2019-06-20T08:38:31.165Z,29.91
2019-06-20T08:41:00.204Z,29.73
2019-06-20T08:43:29.051Z,29.75
2019-06-20T08:45:57.925Z,29.64
2019-06-20T08:48:26.612Z,29.81
2019-06-20T08:50:56.859Z,29.99
2019-06-20T08:53:25.765Z,30.03
2019-06-20T08:55:55.896Z,29.84
2019-06-20T08:58:24.952Z,30.17
2019-06-20T09:00:55.480Z,30.14
2019-06-20T09:03:24.149Z,29.90
2019-06-20T09:05:54.962Z,29.85
2019-06-20T09:08:23.309Z,29.84
2019-06-20T09:10:54.111Z,30.07
2019-06-20T09:13:22.486Z,30.27
2019-06-20T09:15:52.229Z,30.31
2019-06-20T09:18:21.628Z,30.26
2019-06-20T09:20:52.671Z,30.65
2019-06-20T09:23:20.804Z,30.90
2019-06-20T09:25:50.921Z,30.51
2019-06-20T09:28:19.963Z,30.44
2019-06-20T09:30:48.672Z,30.54
2019-06-20T09:33:17.380Z,30.72
2019-06-20T09:35:46.084Z,30.78
2019-06-20T09:38:14.793Z,30.93
2019-06-20T09:40:43.500Z,30.92
2019-06-20T09:43:24.170Z,31.26
2019-06-20T09:45:42.649Z,31.11
2019-06-20T09:48:11.348Z,31.10
2019-06-20T09:50:40.048Z,31.20
2019-06-20T09:53:08.764Z,31.05
2019-06-20T09:55:37.463Z,30.96
2019-06-20T09:58:06.493Z,30.93
2019-06-20T10:00:35.741Z,31.08
2019-06-20T10:03:04.917Z,31.14
2019-06-20T10:05:33.618Z,31.36
2019-06-20T10:08:02.436Z,31.65
2019-06-20T10:10:32.142Z,31.59
2019-06-20T10:13:00.899Z,31.27
2019-06-20T10:15:32.303Z,30.80
2019-06-20T10:18:01.026Z,30.78
2019-06-20T10:20:29.827Z,30.93
2019-06-20T10:22:58.647Z,30.93
2019-06-20T10:25:27.395Z,30.85
2019-06-20T10:27:57.691Z,30.90
2019-06-20T10:30:28.095Z,30.76
2019-06-20T10:32:57.698Z,30.75
2019-06-20T10:35:27.007Z,30.64
2019-06-20T10:37:57.147Z,30.89
2019-06-20T10:40:26.551Z,30.77
2019-06-20T10:42:56.656Z,30.89
2019-06-20T10:45:26.683Z,30.40
2019-06-20T10:47:55.961Z,30.56
2019-06-20T10:50:25.605Z,30.87
2019-06-20T10:52:54.812Z,30.87
2019-06-20T10:55:24.019Z,31.15
2019-06-20T10:57:52.731Z,31.15
2019-06-20T11:00:30.975Z,31.06
2019-06-20T11:02:54.674Z,30.95
2019-06-20T11:05:24.363Z,31.11
2019-06-20T11:07:53.080Z,30.83
2019-06-20T11:10:23.446Z,30.87
2019-06-20T11:12:55.631Z,31.12
2019-06-20T11:15:24.150Z,31.19
2019-06-20T11:17:56.143Z,31.38
2019-06-20T11:20:23.604Z,31.30
2019-06-20T11:22:52.350Z,31.18
2019-06-20T11:25:21.161Z,31.30
2019-06-20T11:27:49.865Z,31.24
2019-06-20T11:30:44.929Z,31.26
2019-06-20T11:33:00.953Z,31.68
2019-06-20T11:35:29.654Z,31.55
2019-06-20T11:37:58.379Z,31.48
2019-06-20T11:40:27.158Z,31.01
2019-06-20T11:42:55.929Z,31.11
2019-06-20T11:45:25.534Z,31.60
2019-06-20T11:47:54.251Z,31.85
2019-06-20T11:50:24.529Z,31.81
2019-06-20T11:52:53.251Z,31.38
2019-06-20T11:55:22.163Z,31.45
2019-06-20T11:57:50.884Z,31.92
2019-06-20T12:00:20.605Z,31.95
2019-06-20T12:02:50.298Z,31.99
2019-06-20T12:05:19.129Z,32.03
2019-06-20T12:07:49.577Z,32.16
2019-06-20T12:10:18.917Z,32.19
2019-06-20T12:12:48.997Z,32.00
2019-06-20T12:15:19.914Z,32.04
2019-06-20T12:17:49.351Z,32.29
2019-06-20T12:20:18.854Z,32.41
2019-06-20T12:22:50.553Z,32.43
2019-06-20T12:25:18.056Z,32.25
2019-06-20T12:27:47.618Z,32.33
2019-06-20T12:30:19.157Z,32.29
2019-06-20T12:32:49.173Z,32.05
2019-06-20T12:35:18.270Z,31.72
2019-06-20T12:37:47.792Z,31.47
2019-06-20T12:40:17.417Z,31.82
2019-06-20T12:42:46.784Z,31.76
2019-06-20T12:45:16.929Z,31.85
2019-06-20T12:47:46.073Z,31.59
2019-06-20T12:50:15.687Z,31.65
2019-06-20T12:52:45.746Z,31.93
2019-06-20T12:55:15.442Z,32.32
2019-06-20T12:57:44.352Z,32.47
2019-06-20T13:00:14.942Z,32.60
2019-06-20T13:02:44.222Z,32.86
2019-06-20T13:05:15.981Z,33.15
2019-06-20T13:07:46.229Z,33.20
2019-06-20T13:10:15.581Z,33.40
2019-06-20T13:12:44.384Z,33.08
2019-06-20T13:15:13.641Z,32.14
2019-06-20T13:17:43.660Z,32.16
2019-06-20T13:20:13.674Z,32.16
2019-06-20T13:22:42.902Z,32.45
2019-06-20T13:25:13.480Z,32.58
2019-06-20T13:27:43.403Z,33.03
2019-06-20T13:30:13.307Z,33.28
2019-06-20T13:32:43.426Z,33.23
2019-06-20T13:35:14.653Z,33.02
2019-06-20T13:37:43.930Z,32.53
2019-06-20T13:40:14.562Z,32.43
2019-06-20T13:42:44.165Z,32.11
2019-06-20T13:45:27.385Z,32.26
2019-06-20T13:47:56.494Z,32.22
2019-06-20T13:50:26.799Z,32.35
2019-06-20T13:52:55.527Z,32.15
2019-06-20T13:55:24.235Z,32.34
2019-06-20T13:57:52.998Z,32.51
2019-06-20T14:00:24.041Z,32.81
2019-06-20T14:02:52.747Z,33.15
2019-06-20T14:05:21.680Z,33.09
2019-06-20T14:07:53.819Z,33.43
2019-06-20T14:10:21.032Z,33.47
2019-06-20T14:12:49.729Z,33.59
2019-06-20T14:15:18.843Z,33.82
2019-06-20T14:17:49.743Z,33.92
2019-06-20T14:20:19.607Z,33.28
2019-06-20T14:22:49.478Z,33.13
2019-06-20T14:25:20.657Z,32.58
2019-06-20T14:27:49.974Z,32.38
2019-06-20T14:30:20.817Z,32.17
2019-06-20T14:32:49.609Z,32.30
2019-06-20T14:35:18.974Z,32.78
2019-06-20T14:37:49.171Z,33.01
2019-06-20T14:40:19.851Z,32.71
2019-06-20T14:42:50.116Z,32.47
2019-06-20T14:45:19.834Z,32.43
2019-06-20T14:47:48.638Z,32.71
2019-06-20T14:50:17.852Z,32.90
2019-06-20T14:52:48.171Z,32.14
2019-06-20T14:55:17.050Z,31.82
2019-06-20T14:57:46.968Z,31.94
2019-06-20T15:00:17.160Z,32.16
2019-06-20T15:02:47.989Z,31.06
2019-06-20T15:05:17.869Z,29.46
2019-06-20T15:07:48.919Z,29.57
2019-06-20T15:10:17.675Z,29.71
2019-06-20T15:12:48.344Z,29.99
2019-06-20T15:15:17.159Z,29.38
2019-06-20T15:17:47.450Z,29.10
2019-06-20T15:20:17.117Z,28.78
2019-06-20T15:22:47.417Z,28.68
2019-06-20T15:25:16.260Z,28.70
2019-06-20T15:27:47.280Z,28.63
2019-06-20T15:30:16.094Z,28.53
2019-06-20T15:32:55.555Z,28.29
2019-06-20T15:35:15.375Z,28.29
2019-06-20T15:37:44.117Z,27.93
2019-06-20T15:40:13.490Z,27.91
2019-06-20T15:42:42.235Z,27.92
2019-06-20T15:45:11.338Z,27.86
2019-06-20T15:47:40.048Z,27.98
2019-06-20T15:50:09.048Z,27.91
2019-06-20T15:52:37.770Z,27.90
2019-06-20T15:55:07.845Z,27.86
2019-06-20T15:57:36.573Z,27.86
2019-06-20T16:00:14.474Z,27.81
2019-06-20T16:02:43.185Z,27.69
2019-06-20T16:05:13.111Z,27.62
2019-06-20T16:07:41.852Z,27.56
2019-06-20T16:10:10.972Z,27.66
2019-06-20T16:12:39.743Z,27.75
2019-06-20T16:15:10.721Z,28.39
2019-06-20T16:17:39.426Z,28.35
2019-06-20T16:20:08.754Z,28.26
2019-06-20T16:22:37.457Z,28.53
2019-06-20T16:25:09.523Z,28.31
2019-06-20T16:27:38.250Z,28.58
2019-06-20T16:30:07.463Z,29.05
2019-06-20T16:32:36.777Z,29.49
2019-06-20T16:35:08.822Z,29.78
2019-06-20T16:37:37.563Z,30.06
2019-06-20T16:40:08.640Z,29.81
2019-06-20T16:42:37.341Z,29.76
2019-06-20T16:45:07.651Z,29.50
2019-06-20T16:47:36.356Z,29.21
2019-06-20T16:50:08.720Z,29.15
2019-06-20T16:52:37.426Z,29.02
2019-06-20T16:55:06.926Z,29.18
2019-06-20T16:57:35.628Z,29.07
2019-06-20T17:00:07.528Z,28.95
2019-06-20T17:02:36.298Z,28.97
2019-06-20T17:05:06.710Z,28.70
2019-06-20T17:07:35.804Z,28.91
2019-06-20T17:10:06.418Z,29.17
2019-06-20T17:12:35.127Z,29.17
2019-06-20T17:15:05.069Z,28.83
2019-06-20T17:17:33.772Z,28.38
2019-06-20T17:20:02.516Z,28.23
2019-06-20T17:22:31.227Z,28.33
2019-06-20T17:24:59.932Z,28.05
2019-06-20T17:27:28.709Z,28.05
2019-06-20T17:29:57.468Z,27.83
2019-06-20T17:32:26.190Z,27.34
2019-06-20T17:34:54.934Z,27.30
2019-06-20T17:37:23.655Z,27.21
2019-06-20T17:39:52.428Z,26.99
2019-06-20T17:42:21.146Z,26.95
2019-06-20T17:44:49.851Z,26.74
2019-06-20T17:47:18.565Z,26.52
2019-06-20T17:49:47.293Z,26.43
2019-06-20T17:52:16.043Z,26.29
2019-06-20T17:54:44.756Z,26.28
2019-06-20T17:57:13.460Z,26.18
2019-06-20T17:59:42.186Z,26.10
2019-06-20T18:02:10.894Z,26.02
2019-06-20T18:04:39.638Z,26.09
2019-06-20T18:07:10.043Z,26.08
2019-06-20T18:09:40.365Z,26.02
2019-06-20T18:12:10.642Z,26.03
2019-06-20T18:14:39.398Z,25.97
2019-06-20T18:17:08.143Z,25.94
2019-06-20T18:19:36.853Z,25.80
2019-06-20T18:22:05.564Z,25.78
2019-06-20T18:24:34.281Z,25.87
2019-06-20T18:27:02.995Z,25.78
2019-06-20T18:29:31.749Z,25.76
2019-06-20T18:32:00.514Z,25.67
2019-06-20T18:34:30.525Z,25.59
2019-06-20T18:36:59.581Z,25.42
2019-06-20T18:39:28.275Z,25.39
2019-06-20T18:41:57.033Z,25.24
2019-06-20T18:44:26.141Z,25.14
2019-06-20T18:46:54.849Z,25.13
2019-06-20T18:49:23.570Z,25.18
2019-06-20T18:51:52.280Z,25.19
2019-06-20T18:54:21.137Z,25.19
2019-06-20T18:56:49.872Z,25.11
2019-06-20T18:59:18.573Z,25.04
2019-06-20T19:01:47.290Z,25.15
2019-06-20T19:04:15.991Z,25.16
2019-06-20T19:06:44.759Z,25.15
2019-06-20T19:09:13.457Z,25.22
2019-06-20T19:11:42.199Z,25.23
2019-06-20T19:14:12.723Z,25.24
2019-06-20T19:16:41.333Z,25.25
2019-06-20T19:19:10.088Z,25.29
2019-06-20T19:21:38.786Z,25.31
2019-06-20T19:24:07.499Z,25.26
2019-06-20T19:26:36.216Z,25.20
2019-06-20T19:29:05.041Z,25.02
2019-06-20T19:31:33.748Z,24.98
2019-06-20T19:34:02.443Z,24.99
2019-06-20T19:36:31.189Z,24.97
2019-06-20T19:38:59.902Z,24.99
2019-06-20T19:41:28.602Z,24.98
2019-06-20T19:43:57.330Z,24.94
2019-06-20T19:46:26.059Z,24.96
2019-06-20T19:48:54.804Z,24.91
2019-06-20T19:51:23.520Z,24.87
2019-06-20T19:53:52.228Z,24.93
2019-06-20T19:56:21.042Z,24.94
2019-06-20T19:58:49.846Z,24.95
2019-06-20T20:01:18.889Z,24.85
2019-06-20T20:03:47.667Z,24.87
2019-06-20T20:06:16.395Z,24.77
2019-06-20T20:08:45.184Z,24.73
2019-06-20T20:11:13.889Z,24.61
2019-06-20T20:13:42.641Z,24.57
2019-06-20T20:16:11.342Z,24.55
2019-06-20T20:18:40.049Z,24.48
2019-06-20T20:21:08.766Z,24.45
2019-06-20T20:23:37.483Z,24.47
2019-06-20T20:26:08.687Z,24.37
2019-06-20T20:28:36.689Z,24.33
2019-06-20T20:31:05.401Z,24.31
2019-06-20T20:33:34.108Z,24.30
2019-06-20T20:36:02.815Z,24.27
2019-06-20T20:38:31.557Z,24.31
2019-06-20T20:41:00.268Z,24.33
2019-06-20T20:43:28.987Z,24.29
2019-06-20T20:45:57.703Z,24.31
2019-06-20T20:48:26.408Z,24.20
2019-06-20T20:50:55.159Z,24.06
2019-06-20T20:53:23.872Z,23.96
2019-06-20T20:55:52.580Z,23.97
2019-06-20T20:58:21.297Z,24.01
2019-06-20T21:00:58.551Z,24.07
2019-06-20T21:03:27.269Z,24.02
2019-06-20T21:05:55.981Z,23.97
2019-06-20T21:08:24.684Z,23.92
2019-06-20T21:10:53.398Z,23.92
2019-06-20T21:13:22.113Z,23.96
2019-06-20T21:15:50.821Z,23.87
2019-06-20T21:18:19.603Z,23.89
2019-06-20T21:20:48.310Z,23.85
2019-06-20T21:23:17.021Z,23.66
2019-06-20T21:25:45.799Z,23.41
2019-06-20T21:28:14.500Z,23.10
2019-06-20T21:30:43.224Z,22.83
2019-06-20T21:33:11.960Z,22.56
2019-06-20T21:35:40.973Z,22.43
2019-06-20T21:38:09.677Z,22.44
2019-06-20T21:40:38.388Z,22.41
2019-06-20T21:43:07.100Z,22.39
2019-06-20T21:45:35.863Z,22.42
2019-06-20T21:48:04.707Z,22.56
2019-06-20T21:50:33.376Z,22.64
2019-06-20T21:53:02.610Z,22.80
2019-06-20T21:55:31.319Z,22.86
2019-06-20T21:58:00.070Z,22.91
2019-06-20T22:00:33.321Z,22.97
2019-06-20T22:03:02.006Z,23.02
2019-06-20T22:05:30.729Z,22.98
2019-06-20T22:07:59.452Z,22.96
2019-06-20T22:10:28.207Z,22.98
2019-06-20T22:12:56.953Z,22.95
2019-06-20T22:15:25.650Z,22.96
2019-06-20T22:17:54.366Z,23.00
2019-06-20T22:20:24.687Z,23.04
2019-06-20T22:22:53.547Z,23.11
2019-06-20T22:25:22.663Z,23.10
2019-06-20T22:27:51.390Z,23.11
2019-06-20T22:30:28.771Z,23.10
2019-06-20T22:32:57.475Z,23.15
2019-06-20T22:35:26.225Z,23.27
2019-06-20T22:37:54.933Z,23.25
2019-06-20T22:40:23.652Z,23.23
2019-06-20T22:42:52.358Z,23.24
2019-06-20T22:45:21.192Z,23.27
2019-06-20T22:47:49.918Z,23.33
2019-06-20T22:50:18.739Z,23.36
2019-06-20T22:52:47.442Z,23.35
2019-06-20T22:55:16.163Z,23.33
2019-06-20T22:57:44.876Z,23.33
2019-06-20T23:00:14.128Z,23.36
2019-06-20T23:02:42.856Z,23.34
2019-06-20T23:05:11.666Z,23.38
2019-06-20T23:07:40.646Z,23.41
2019-06-20T23:10:11.347Z,23.33
2019-06-20T23:12:40.319Z,23.25
2019-06-20T23:15:09.706Z,23.19
2019-06-20T23:17:38.412Z,23.11
2019-06-20T23:20:08.523Z,23.08
2019-06-20T23:22:37.234Z,23.06
2019-06-20T23:25:08.137Z,23.01
2019-06-20T23:27:36.795Z,22.99
2019-06-20T23:30:07.577Z,22.80
2019-06-20T23:32:36.273Z,22.58
2019-06-20T23:35:09.304Z,22.54
2019-06-20T23:37:38.049Z,22.61
2019-06-20T23:40:07.858Z,22.69
2019-06-20T23:42:36.597Z,22.70
2019-06-20T23:45:09.780Z,22.62
2019-06-20T23:47:38.483Z,22.53
2019-06-20T23:50:10.631Z,22.52
2019-06-20T23:52:46.633Z,22.59
2019-06-20T23:55:15.380Z,22.62
2019-06-20T23:57:44.090Z,22.63
